sensor_id;sensor_type;location;lat;lon;timestamp;pressure;altitude;pressure_sealevel;temperature;humidity
74103;BME280;62853;46.166;3.640;2023-03-12T00:01:25;100998.09;;;2.57;100.00
74103;BME280;62853;46.166;3.640;2023-03-12T00:04:00;101023.81;;;2.71;100.00
74103;BME280;62853;46.166;3.640;2023-03-12T00:06:46;101002.22;;;2.67;100.00
74103;BME280;62853;46.166;3.640;2023-03-12T00:09:28;100992.69;;;2.66;100.00
74103;BME280;62853;46.166;3.640;2023-03-12T00:11:58;100987.53;;;2.65;100.00
74103;BME280;62853;46.166;3.640;2023-03-12T00:14:26;100999.53;;;2.72;100.00
74103;BME280;62853;46.166;3.640;2023-03-12T00:16:52;100991.03;;;2.64;100.00
74103;BME280;62853;46.166;3.640;2023-03-12T00:19:29;100995.22;;;2.71;100.00
74103;BME280;62853;46.166;3.640;2023-03-12T00:22:02;100996.19;;;2.67;100.00
74103;BME280;62853;46.166;3.640;2023-03-12T00:27:16;100966.84;;;2.58;100.00
74103;BME280;62853;46.166;3.640;2023-03-12T00:29:44;100966.78;;;2.63;100.00
74103;BME280;62853;46.166;3.640;2023-03-12T00:32:10;100959.94;;;2.57;100.00
74103;BME280;62853;46.166;3.640;2023-03-12T00:34:35;100959.94;;;2.57;100.00
74103;BME280;62853;46.166;3.640;2023-03-12T00:37:01;100964.09;;;2.66;100.00
74103;BME280;62853;46.166;3.640;2023-03-12T00:39:27;100948.50;;;2.65;100.00
74103;BME280;62853;46.166;3.640;2023-03-12T00:42:00;100945.03;;;2.66;100.00
74103;BME280;62853;46.166;3.640;2023-03-12T00:44:31;100943.38;;;2.63;100.00
74103;BME280;62853;46.166;3.640;2023-03-12T00:47:04;100943.50;;;2.57;100.00
74103;BME280;62853;46.166;3.640;2023-03-12T00:49:47;100957.19;;;2.65;100.00
74103;BME280;62853;46.166;3.640;2023-03-12T00:52:19;100945.03;;;2.66;100.00
74103;BME280;62853;46.166;3.640;2023-03-12T00:54:52;100935.56;;;2.63;100.00
74103;BME280;62853;46.166;3.640;2023-03-12T00:57:27;100952.69;;;2.73;100.00
74103;BME280;62853;46.166;3.640;2023-03-12T00:59:59;100942.34;;;2.70;100.00
74103;BME280;62853;46.166;3.640;2023-03-12T01:03:04;100934.56;;;2.69;100.00
74103;BME280;62853;46.166;3.640;2023-03-12T01:05:40;100931.00;;;2.73;100.00
74103;BME280;62853;46.166;3.640;2023-03-12T01:08:08;100930.19;;;2.71;100.00
74103;BME280;62853;46.166;3.640;2023-03-12T01:10:35;100930.16;;;2.72;100.00
74103;BME280;62853;46.166;3.640;2023-03-12T01:13:03;100946.41;;;2.84;100.00
74103;BME280;62853;46.166;3.640;2023-03-12T01:15:31;100923.13;;;2.77;100.00
74103;BME280;62853;46.166;3.640;2023-03-12T01:21:07;100922.97;;;2.85;100.00
74103;BME280;62853;46.166;3.640;2023-03-12T01:23:45;100908.22;;;2.86;100.00
74103;BME280;62853;46.166;3.640;2023-03-12T01:26:38;100914.16;;;2.91;100.00
74103;BME280;62853;46.166;3.640;2023-03-12T01:32:22;100907.44;;;2.82;100.00
74103;BME280;62853;46.166;3.640;2023-03-12T01:34:47;100910.97;;;2.78;100.00
74103;BME280;62853;46.166;3.640;2023-03-12T01:37:25;100913.59;;;2.76;100.00
74103;BME280;62853;46.166;3.640;2023-03-12T01:39:55;100909.34;;;2.74;100.00
74103;BME280;62853;46.166;3.640;2023-03-12T01:42:34;100917.78;;;2.85;100.00
74103;BME280;62853;46.166;3.640;2023-03-12T01:48:35;100901.34;;;2.82;100.00
74103;BME280;62853;46.166;3.640;2023-03-12T01:51:34;100895.38;;;2.76;100.00
74103;BME280;62853;46.166;3.640;2023-03-12T01:54:27;100895.38;;;2.76;100.00
74103;BME280;62853;46.166;3.640;2023-03-12T02:00:46;100891.00;;;2.80;100.00
74103;BME280;62853;46.166;3.640;2023-03-12T02:03:45;100895.38;;;2.76;100.00
74103;BME280;62853;46.166;3.640;2023-03-12T02:09:47;100885.91;;;2.75;100.00
74103;BME280;62853;46.166;3.640;2023-03-12T02:12:20;100878.19;;;2.71;100.00
74103;BME280;62853;46.166;3.640;2023-03-12T02:14:59;100862.63;;;2.68;100.00
74103;BME280;62853;46.166;3.640;2023-03-12T02:17:47;100879.84;;;2.75;100.00
74103;BME280;62853;46.166;3.640;2023-03-12T02:26:30;100849.59;;;2.69;100.00
74103;BME280;62853;46.166;3.640;2023-03-12T02:28:58;100851.34;;;2.70;100.00
74103;BME280;62853;46.166;3.640;2023-03-12T02:31:28;100844.50;;;2.65;100.00
74103;BME280;62853;46.166;3.640;2023-03-12T02:33:59;100842.75;;;2.67;100.00
74103;BME280;62853;46.166;3.640;2023-03-12T02:36:26;100843.66;;;2.64;100.00
74103;BME280;62853;46.166;3.640;2023-03-12T02:38:53;100843.63;;;2.66;100.00
74103;BME280;62853;46.166;3.640;2023-03-12T02:41:21;100848.75;;;2.69;100.00
74103;BME280;62853;46.166;3.640;2023-03-12T02:43:54;100840.16;;;2.67;100.00
74103;BME280;62853;46.166;3.640;2023-03-12T02:46:22;100852.28;;;2.66;100.00
74103;BME280;62853;46.166;3.640;2023-03-12T02:48:48;100853.06;;;2.70;100.00
74103;BME280;62853;46.166;3.640;2023-03-12T02:51:16;100861.75;;;2.69;100.00
74103;BME280;62853;46.166;3.640;2023-03-12T02:53:42;100863.31;;;2.77;100.00
74103;BME280;62853;46.166;3.640;2023-03-12T02:56:07;100848.69;;;2.72;100.00
74103;BME280;62853;46.166;3.640;2023-03-12T02:58:33;100850.31;;;2.76;100.00
74103;BME280;62853;46.166;3.640;2023-03-12T03:01:03;100855.41;;;2.82;100.00
74103;BME280;62853;46.166;3.640;2023-03-12T03:06:41;100855.53;;;2.76;100.00
74103;BME280;62853;46.166;3.640;2023-03-12T03:09:15;100850.28;;;2.77;100.00
74103;BME280;62853;46.166;3.640;2023-03-12T03:11:47;100847.75;;;2.74;100.00
74103;BME280;62853;46.166;3.640;2023-03-12T03:14:19;100845.19;;;2.73;100.00
74103;BME280;62853;46.166;3.640;2023-03-12T03:16:50;100838.28;;;2.72;100.00
74103;BME280;62853;46.166;3.640;2023-03-12T03:19:33;100836.59;;;2.69;100.00
74103;BME280;62853;46.166;3.640;2023-03-12T03:21:59;100833.22;;;2.66;100.00
74103;BME280;62853;46.166;3.640;2023-03-12T03:24:25;100835.81;;;2.66;100.00
74103;BME280;62853;46.166;3.640;2023-03-12T03:27:03;100823.75;;;2.63;100.00
74103;BME280;62853;46.166;3.640;2023-03-12T03:29:33;100823.66;;;2.66;100.00
74103;BME280;62853;46.166;3.640;2023-03-12T03:31:59;100839.13;;;2.74;100.00
74103;BME280;62853;46.166;3.640;2023-03-12T03:34:55;100829.66;;;2.70;100.00
74103;BME280;62853;46.166;3.640;2023-03-12T03:37:37;100835.69;;;2.72;100.00
74103;BME280;62853;46.166;3.640;2023-03-12T03:40:35;100828.88;;;2.66;100.00
74103;BME280;62853;46.166;3.640;2023-03-12T03:43:23;100817.91;;;2.53;100.00
74103;BME280;62853;46.166;3.640;2023-03-12T03:45:56;100827.22;;;2.64;100.00
74103;BME280;62853;46.166;3.640;2023-03-12T03:48:36;100821.09;;;2.65;100.00
74103;BME280;62853;46.166;3.640;2023-03-12T03:51:24;100820.97;;;2.71;100.00
74103;BME280;62853;46.166;3.640;2023-03-12T03:54:22;100803.72;;;2.68;100.00
74103;BME280;62853;46.166;3.640;2023-03-12T03:56:52;100795.16;;;2.63;100.00
74103;BME280;62853;46.166;3.640;2023-03-12T03:59:46;100782.19;;;2.62;100.00
74103;BME280;62853;46.166;3.640;2023-03-12T04:02:49;100777.09;;;2.57;100.00
74103;BME280;62853;46.166;3.640;2023-03-12T04:09:14;100795.31;;;2.55;100.00
74103;BME280;62853;46.166;3.640;2023-03-12T04:11:58;100773.91;;;2.44;100.00
74103;BME280;62853;46.166;3.640;2023-03-12T04:21:23;100773.84;;;2.47;100.00
74103;BME280;62853;46.166;3.640;2023-03-12T04:34:22;100763.53;;;2.42;100.00
74103;BME280;62853;46.166;3.640;2023-03-12T04:54:53;100722.81;;;2.43;100.00
74103;BME280;62853;46.166;3.640;2023-03-12T04:57:57;100728.81;;;2.45;100.00
74103;BME280;62853;46.166;3.640;2023-03-12T05:04:46;100717.59;;;2.45;100.00
74103;BME280;62853;46.166;3.640;2023-03-12T05:07:55;100700.06;;;2.51;100.00
74103;BME280;62853;46.166;3.640;2023-03-12T05:10:36;100712.13;;;2.55;100.00
74103;BME280;62853;46.166;3.640;2023-03-12T05:20:24;100673.88;;;2.60;100.00
74103;BME280;62853;46.166;3.640;2023-03-12T05:23:16;100679.88;;;2.63;100.00
74103;BME280;62853;46.166;3.640;2023-03-12T05:25:46;100683.34;;;2.63;100.00
74103;BME280;62853;46.166;3.640;2023-03-12T05:31:26;100672.25;;;2.56;100.00
74103;BME280;62853;46.166;3.640;2023-03-12T05:34:33;100690.25;;;2.64;100.00
74103;BME280;62853;46.166;3.640;2023-03-12T05:37:23;100683.41;;;2.60;100.00
74103;BME280;62853;46.166;3.640;2023-03-12T05:43:31;100691.81;;;2.70;100.00
74103;BME280;62853;46.166;3.640;2023-03-12T05:46:29;100683.28;;;2.65;100.00
74103;BME280;62853;46.166;3.640;2023-03-12T06:01:36;100657.34;;;2.63;100.00
74103;BME280;62853;46.166;3.640;2023-03-12T06:04:29;100658.97;;;2.67;100.00
74103;BME280;62853;46.166;3.640;2023-03-12T06:07:49;100680.34;;;2.80;100.00
74103;BME280;62853;46.166;3.640;2023-03-12T06:10:38;100688.06;;;2.82;100.00
74103;BME280;62853;46.166;3.640;2023-03-12T06:34:43;100687.16;;;2.84;100.00
74103;BME280;62853;46.166;3.640;2023-03-12T06:37:38;100699.03;;;2.94;100.00
74103;BME280;62853;46.166;3.640;2023-03-12T06:44:40;100672.25;;;2.91;100.00
74103;BME280;62853;46.166;3.640;2023-03-12T06:47:29;100650.69;;;2.86;100.00
74103;BME280;62853;46.166;3.640;2023-03-12T06:50:03;100652.50;;;2.84;100.00
74103;BME280;62853;46.166;3.640;2023-03-12T06:52:38;100655.09;;;2.84;100.00
74103;BME280;62853;46.166;3.640;2023-03-12T06:55:27;100649.72;;;2.90;100.00
74103;BME280;62853;46.166;3.640;2023-03-12T06:58:00;100631.78;;;2.79;100.00
74103;BME280;62853;46.166;3.640;2023-03-12T07:00:34;100653.28;;;2.86;100.00
74103;BME280;62853;46.166;3.640;2023-03-12T07:03:20;100633.56;;;2.78;100.00
74103;BME280;62853;46.166;3.640;2023-03-12T07:15:05;100647.59;;;3.04;100.00
74103;BME280;62853;46.166;3.640;2023-03-12T07:31:01;100646.78;;;3.04;100.00
74103;BME280;62853;46.166;3.640;2023-03-12T07:33:42;100648.34;;;3.09;100.00
74103;BME280;62853;46.166;3.640;2023-03-12T07:36:26;100634.53;;;3.07;100.00
74103;BME280;62853;46.166;3.640;2023-03-12T07:39:05;100641.31;;;3.13;100.00
74103;BME280;62853;46.166;3.640;2023-03-12T07:41:58;100649.84;;;3.18;100.00
74103;BME280;62853;46.166;3.640;2023-03-12T07:44:31;100654.06;;;3.22;100.00
74103;BME280;62853;46.166;3.640;2023-03-12T07:46:58;100655.59;;;3.29;100.00
74103;BME280;62853;46.166;3.640;2023-03-12T07:49:23;100651.25;;;3.30;100.00
74103;BME280;62853;46.166;3.640;2023-03-12T07:51:49;100668.44;;;3.35;100.00
74103;BME280;62853;46.166;3.640;2023-03-12T07:54:33;100648.56;;;3.33;100.00
74103;BME280;62853;46.166;3.640;2023-03-12T07:57:03;100662.09;;;3.46;100.00
74103;BME280;62853;46.166;3.640;2023-03-12T07:59:32;100648.34;;;3.41;100.00
74103;BME280;62853;46.166;3.640;2023-03-12T08:02:10;100645.59;;;3.45;100.00
74103;BME280;62853;46.166;3.640;2023-03-12T08:04:47;100649.81;;;3.51;100.00
74103;BME280;62853;46.166;3.640;2023-03-12T08:07:24;100657.28;;;3.62;100.00
74103;BME280;62853;46.166;3.640;2023-03-12T08:10:13;100653.94;;;3.58;100.00
74103;BME280;62853;46.166;3.640;2023-03-12T08:13:10;100645.03;;;3.65;100.00
74103;BME280;62853;46.166;3.640;2023-03-12T08:15:59;100642.16;;;3.75;100.00
74103;BME280;62853;46.166;3.640;2023-03-12T08:18:31;100645.38;;;3.83;100.00
74103;BME280;62853;46.166;3.640;2023-03-12T08:21:07;100657.47;;;3.85;100.00
74103;BME280;62853;46.166;3.640;2023-03-12T08:23:44;100642.00;;;3.79;100.00
74103;BME280;62853;46.166;3.640;2023-03-12T08:26:12;100658.06;;;3.95;100.00
74103;BME280;62853;46.166;3.640;2023-03-12T08:28:43;100647.53;;;3.98;100.00
74103;BME280;62853;46.166;3.640;2023-03-12T08:31:09;100642.16;;;4.03;100.00
74103;BME280;62853;46.166;3.640;2023-03-12T08:33:45;100659.38;;;4.08;100.00
74103;BME280;62853;46.166;3.640;2023-03-12T08:36:31;100662.78;;;4.10;100.00
74103;BME280;62853;46.166;3.640;2023-03-12T08:42:06;100669.28;;;4.25;100.00
74103;BME280;62853;46.166;3.640;2023-03-12T08:44:54;100659.53;;;4.32;100.00
74103;BME280;62853;46.166;3.640;2023-03-12T08:47:47;100684.41;;;4.42;100.00
74103;BME280;62853;46.166;3.640;2023-03-12T08:50:21;100680.72;;;4.48;100.00
74103;BME280;62853;46.166;3.640;2023-03-12T08:52:55;100701.16;;;4.62;100.00
74103;BME280;62853;46.166;3.640;2023-03-12T08:55:31;100677.84;;;4.57;100.00
74103;BME280;62853;46.166;3.640;2023-03-12T09:11:00;100683.22;;;5.05;100.00
74103;BME280;62853;46.166;3.640;2023-03-12T09:13:46;100680.28;;;5.14;100.00
74103;BME280;62853;46.166;3.640;2023-03-12T09:16:44;100702.09;;;5.38;100.00
74103;BME280;62853;46.166;3.640;2023-03-12T09:19:12;100692.19;;;5.46;100.00
74103;BME280;62853;46.166;3.640;2023-03-12T09:21:52;100689.91;;;5.62;100.00
74103;BME280;62853;46.166;3.640;2023-03-12T09:24:30;100692.97;;;5.73;100.00
74103;BME280;62853;46.166;3.640;2023-03-12T09:26:56;100681.94;;;5.89;100.00
74103;BME280;62853;46.166;3.640;2023-03-12T09:29:31;100683.63;;;5.90;100.00
74103;BME280;62853;46.166;3.640;2023-03-12T09:32:25;100694.75;;;5.95;100.00
74103;BME280;62853;46.166;3.640;2023-03-12T09:34:51;100697.75;;;6.09;100.00
74103;BME280;62853;46.166;3.640;2023-03-12T09:37:24;100692.19;;;6.17;100.00
74103;BME280;62853;46.166;3.640;2023-03-12T09:40:21;100700.25;;;6.35;100.00
74103;BME280;62853;46.166;3.640;2023-03-12T09:45:43;100695.31;;;6.49;100.00
74103;BME280;62853;46.166;3.640;2023-03-12T09:48:21;100696.34;;;6.67;100.00
74103;BME280;62853;46.166;3.640;2023-03-12T09:50:49;100700.47;;;6.73;100.00
74103;BME280;62853;46.166;3.640;2023-03-12T09:53:37;100696.03;;;6.75;100.00
74103;BME280;62853;46.166;3.640;2023-03-12T09:56:12;100712.53;;;6.77;100.00
74103;BME280;62853;46.166;3.640;2023-03-12T09:58:41;100707.22;;;6.78;100.00
74103;BME280;62853;46.166;3.640;2023-03-12T10:01:43;100718.97;;;6.90;100.00
74103;BME280;62853;46.166;3.640;2023-03-12T10:15:35;100728.38;;;7.15;100.00
74103;BME280;62853;46.166;3.640;2023-03-12T10:21:20;100733.31;;;7.22;100.00
74103;BME280;62853;46.166;3.640;2023-03-12T10:24:13;100720.34;;;7.19;100.00
74103;BME280;62853;46.166;3.640;2023-03-12T10:29:29;100720.16;;;7.24;100.00
74103;BME280;62853;46.166;3.640;2023-03-12T10:32:28;100735.59;;;7.30;100.00
74103;BME280;62853;46.166;3.640;2023-03-12T10:35:25;100719.88;;;7.30;100.00
74103;BME280;62853;46.166;3.640;2023-03-12T10:38:03;100729.66;;;7.47;100.00
74103;BME280;62853;46.166;3.640;2023-03-12T10:40:39;100720.97;;;7.45;100.00
74103;BME280;62853;46.166;3.640;2023-03-12T10:43:16;100717.97;;;7.54;100.00
74103;BME280;62853;46.166;3.640;2023-03-12T10:45:55;100713.44;;;7.58;100.00
74103;BME280;62853;46.166;3.640;2023-03-12T10:48:25;100726.34;;;7.62;100.00
74103;BME280;62853;46.166;3.640;2023-03-12T10:51:09;100712.88;;;7.70;100.00
74103;BME280;62853;46.166;3.640;2023-03-12T10:56:49;100722.59;;;7.87;100.00
74103;BME280;62853;46.166;3.640;2023-03-12T10:59:26;100722.34;;;7.93;100.00
74103;BME280;62853;46.166;3.640;2023-03-12T11:02:29;100729.63;;;8.06;100.00
74103;BME280;62853;46.166;3.640;2023-03-12T11:05:20;100723.22;;;8.13;100.00
74103;BME280;62853;46.166;3.640;2023-03-12T11:08:34;100717.44;;;8.24;100.00
74103;BME280;62853;46.166;3.640;2023-03-12T11:11:29;100735.16;;;8.37;100.00
74103;BME280;62853;46.166;3.640;2023-03-12T11:14:41;100725.19;;;8.46;100.00
74103;BME280;62853;46.166;3.640;2023-03-12T11:17:29;100723.59;;;8.61;100.00
74103;BME280;62853;46.166;3.640;2023-03-12T11:23:45;100745.16;;;8.85;100.00
74103;BME280;62853;46.166;3.640;2023-03-12T11:29:56;100745.56;;;8.77;100.00
74103;BME280;62853;46.166;3.640;2023-03-12T11:32:33;100746.47;;;8.76;100.00
74103;BME280;62853;46.166;3.640;2023-03-12T11:35:11;100742.13;;;8.75;100.00
74103;BME280;62853;46.166;3.640;2023-03-12T11:40:36;100738.53;;;8.95;100.00
74103;BME280;62853;46.166;3.640;2023-03-12T11:46:07;100739.78;;;9.23;100.00
74103;BME280;62853;46.166;3.640;2023-03-12T11:56:35;100715.44;;;9.37;100.00
74103;BME280;62853;46.166;3.640;2023-03-12T11:59:18;100727.13;;;9.64;100.00
74103;BME280;62853;46.166;3.640;2023-03-12T12:02:00;100712.88;;;9.68;100.00
74103;BME280;62853;46.166;3.640;2023-03-12T12:15:47;100697.16;;;10.16;100.00
74103;BME280;62853;46.166;3.640;2023-03-12T12:18:38;100697.50;;;10.26;100.00
74103;BME280;62853;46.166;3.640;2023-03-12T12:32:06;100679.31;;;10.53;100.00
74103;BME280;62853;46.166;3.640;2023-03-12T12:40:19;100664.75;;;10.62;100.00
74103;BME280;62853;46.166;3.640;2023-03-12T12:42:51;100669.03;;;10.65;100.00
74103;BME280;62853;46.166;3.640;2023-03-12T12:45:19;100649.25;;;10.57;100.00
74103;BME280;62853;46.166;3.640;2023-03-12T12:47:56;100639.28;;;10.63;100.00
74103;BME280;62853;46.166;3.640;2023-03-12T12:50:26;100651.47;;;10.79;100.00
74103;BME280;62853;46.166;3.640;2023-03-12T12:53:24;100655.91;;;10.93;100.00
74103;BME280;62853;46.166;3.640;2023-03-12T13:01:15;100617.97;;;10.96;100.00
74103;BME280;62853;46.166;3.640;2023-03-12T13:03:42;100633.03;;;10.94;100.00
74103;BME280;62853;46.166;3.640;2023-03-12T13:06:08;100622.31;;;10.97;100.00
74103;BME280;62853;46.166;3.640;2023-03-12T13:13:48;100615.56;;;10.93;100.00
74103;BME280;62853;46.166;3.640;2023-03-12T13:16:20;100621.75;;;10.92;100.00
74103;BME280;62853;46.166;3.640;2023-03-12T13:19:19;100612.63;;;10.83;100.00
74103;BME280;62853;46.166;3.640;2023-03-12T13:24:29;100615.59;;;10.77;100.00
74103;BME280;62853;46.166;3.640;2023-03-12T13:29:40;100615.75;;;10.59;100.00
74103;BME280;62853;46.166;3.640;2023-03-12T13:32:36;100626.03;;;10.64;100.00
74103;BME280;62853;46.166;3.640;2023-03-12T13:48:44;100582.63;;;11.00;100.00
74103;BME280;62853;46.166;3.640;2023-03-12T13:51:16;100574.03;;;11.11;100.00
74103;BME280;62853;46.166;3.640;2023-03-12T13:53:47;100584.22;;;11.17;100.00
74103;BME280;62853;46.166;3.640;2023-03-12T13:56:17;100597.84;;;11.09;100.00
74103;BME280;62853;46.166;3.640;2023-03-12T13:58:59;100590.03;;;11.08;100.00
74103;BME280;62853;46.166;3.640;2023-03-12T14:01:31;100592.59;;;11.09;100.00
74103;BME280;62853;46.166;3.640;2023-03-12T14:04:03;100597.03;;;11.09;100.00
74103;BME280;62853;46.166;3.640;2023-03-12T14:06:35;100599.00;;;11.05;100.00
74103;BME280;62853;46.166;3.640;2023-03-12T14:09:25;100607.09;;;11.02;100.00
74103;BME280;62853;46.166;3.640;2023-03-12T14:12:18;100622.72;;;11.05;100.00
74103;BME280;62853;46.166;3.640;2023-03-12T14:15:19;100613.84;;;11.06;100.00
74103;BME280;62853;46.166;3.640;2023-03-12T14:17:54;100620.25;;;11.02;100.00
74103;BME280;62853;46.166;3.640;2023-03-12T14:20:21;100618.38;;;11.04;100.00
74103;BME280;62853;46.166;3.640;2023-03-12T14:23:13;100634.19;;;11.04;100.00
74103;BME280;62853;46.166;3.640;2023-03-12T14:25:42;100628.16;;;11.02;100.00
74103;BME280;62853;46.166;3.640;2023-03-12T14:28:21;100613.00;;;10.91;100.00
74103;BME280;62853;46.166;3.640;2023-03-12T14:31:03;100626.53;;;10.85;100.00
74103;BME280;62853;46.166;3.640;2023-03-12T14:33:58;100628.59;;;10.80;100.00
74103;BME280;62853;46.166;3.640;2023-03-12T14:36:31;100628.38;;;10.69;100.00
74103;BME280;62853;46.166;3.640;2023-03-12T14:39:18;100637.50;;;10.63;100.00
74103;BME280;62853;46.166;3.640;2023-03-12T14:41:53;100637.50;;;10.63;100.00
74103;BME280;62853;46.166;3.640;2023-03-12T14:44:23;100633.53;;;10.56;100.00
74103;BME280;62853;46.166;3.640;2023-03-12T14:47:00;100649.91;;;10.61;100.00
74103;BME280;62853;46.166;3.640;2023-03-12T14:49:27;100649.13;;;10.59;100.00
74103;BME280;62853;46.166;3.640;2023-03-12T14:51:53;100631.91;;;10.53;100.00
74103;BME280;62853;46.166;3.640;2023-03-12T14:54:21;100636.34;;;10.53;100.00
74103;BME280;62853;46.166;3.640;2023-03-12T14:56:48;100630.50;;;10.48;100.00
74103;BME280;62853;46.166;3.640;2023-03-12T14:59:26;100632.66;;;10.55;100.00
74103;BME280;62853;46.166;3.640;2023-03-12T15:01:58;100642.28;;;10.56;100.00
74103;BME280;62853;46.166;3.640;2023-03-12T15:04:24;100629.28;;;10.53;100.00
74103;BME280;62853;46.166;3.640;2023-03-12T15:06:53;100632.56;;;10.57;100.00
74103;BME280;62853;46.166;3.640;2023-03-12T15:09:29;100627.59;;;10.52;100.00
74103;BME280;62853;46.166;3.640;2023-03-12T15:12:29;100632.97;;;10.65;100.00
74103;BME280;62853;46.166;3.640;2023-03-12T15:15:35;100644.28;;;10.67;100.00
74103;BME280;62853;46.166;3.640;2023-03-12T15:25:29;100638.81;;;10.70;100.00
74103;BME280;62853;46.166;3.640;2023-03-12T15:47:15;100637.19;;;10.53;100.00
74103;BME280;62853;46.166;3.640;2023-03-12T15:56:38;100635.94;;;10.45;100.00
74103;BME280;62853;46.166;3.640;2023-03-12T15:59:29;100632.38;;;10.46;100.00
74103;BME280;62853;46.166;3.640;2023-03-12T16:01:55;100623.09;;;10.38;100.00
74103;BME280;62853;46.166;3.640;2023-03-12T16:04:21;100625.56;;;10.41;100.00
74103;BME280;62853;46.166;3.640;2023-03-12T16:06:50;100626.69;;;10.37;100.00
74103;BME280;62853;46.166;3.640;2023-03-12T16:09:23;100614.63;;;10.33;100.00
74103;BME280;62853;46.166;3.640;2023-03-12T16:11:51;100626.50;;;10.40;100.00
74103;BME280;62853;46.166;3.640;2023-03-12T16:14:28;100621.50;;;10.36;100.00
74103;BME280;62853;46.166;3.640;2023-03-12T16:16:58;100627.28;;;10.42;100.00
74103;BME280;62853;46.166;3.640;2023-03-12T16:19:30;100614.44;;;10.36;100.00
74103;BME280;62853;46.166;3.640;2023-03-12T16:22:03;100619.72;;;10.36;100.00
74103;BME280;62853;46.166;3.640;2023-03-12T16:24:29;100613.84;;;10.31;100.00
74103;BME280;62853;46.166;3.640;2023-03-12T16:27:17;100605.72;;;10.36;100.00
74103;BME280;62853;46.166;3.640;2023-03-12T16:29:45;100608.66;;;10.30;100.00
74103;BME280;62853;46.166;3.640;2023-03-12T16:32:20;100618.78;;;10.37;100.00
74103;BME280;62853;46.166;3.640;2023-03-12T16:34:46;100622.00;;;10.27;100.00
74103;BME280;62853;46.166;3.640;2023-03-12T16:37:18;100620.97;;;10.29;100.00
74103;BME280;62853;46.166;3.640;2023-03-12T16:39:43;100621.91;;;10.28;100.00
74103;BME280;62853;46.166;3.640;2023-03-12T16:42:37;100610.78;;;10.23;100.00
74103;BME280;62853;46.166;3.640;2023-03-12T16:45:06;100620.97;;;10.29;100.00
74103;BME280;62853;46.166;3.640;2023-03-12T16:47:43;100621.91;;;10.28;100.00
74103;BME280;62853;46.166;3.640;2023-03-12T16:50:21;100605.53;;;10.23;100.00
74103;BME280;62853;46.166;3.640;2023-03-12T16:52:48;100607.50;;;10.19;100.00
74103;BME280;62853;46.166;3.640;2023-03-12T16:55:22;100622.53;;;10.17;100.00
74103;BME280;62853;46.166;3.640;2023-03-12T16:58:10;100605.47;;;10.09;100.00
74103;BME280;62853;46.166;3.640;2023-03-12T17:00:37;100625.59;;;10.10;100.00
74103;BME280;62853;46.166;3.640;2023-03-12T17:03:04;100617.19;;;10.03;100.00
74103;BME280;62853;46.166;3.640;2023-03-12T17:05:30;100625.16;;;10.01;100.00
74103;BME280;62853;46.166;3.640;2023-03-12T17:07:56;100628.91;;;9.97;100.00
74103;BME280;62853;46.166;3.640;2023-03-12T17:10:25;100629.84;;;9.96;100.00
74103;BME280;62853;46.166;3.640;2023-03-12T17:12:53;100625.00;;;9.89;100.00
74103;BME280;62853;46.166;3.640;2023-03-12T17:15:26;100630.19;;;9.90;100.00
74103;BME280;62853;46.166;3.640;2023-03-12T17:17:57;100626.19;;;9.83;100.00
74103;BME280;62853;46.166;3.640;2023-03-12T17:20:30;100650.28;;;9.91;100.00
74103;BME280;62853;46.166;3.640;2023-03-12T17:23:05;100634.16;;;9.81;100.00
74103;BME280;62853;46.166;3.640;2023-03-12T17:25:33;100645.63;;;9.80;100.00
74103;BME280;62853;46.166;3.640;2023-03-12T17:28:02;100640.38;;;9.80;100.00
74103;BME280;62853;46.166;3.640;2023-03-12T17:30:29;100634.94;;;9.83;100.00
74103;BME280;62853;46.166;3.640;2023-03-12T17:33:16;100653.50;;;9.80;100.00
74103;BME280;62853;46.166;3.640;2023-03-12T17:35:44;100660.72;;;9.77;100.00
74103;BME280;62853;46.166;3.640;2023-03-12T17:38:10;100656.31;;;9.77;100.00
74103;BME280;62853;46.166;3.640;2023-03-12T17:40:41;100659.19;;;9.73;100.00
74103;BME280;62853;46.166;3.640;2023-03-12T17:43:07;100650.78;;;9.66;100.00
74103;BME280;62853;46.166;3.640;2023-03-12T17:45:33;100664.78;;;9.66;100.00
74103;BME280;62853;46.166;3.640;2023-03-12T17:48:00;100668.09;;;9.70;100.00
74103;BME280;62853;46.166;3.640;2023-03-12T17:50:28;100666.31;;;9.71;100.00
74103;BME280;62853;46.166;3.640;2023-03-12T17:52:53;100660.38;;;9.67;100.00
74103;BME280;62853;46.166;3.640;2023-03-12T17:55:19;100672.69;;;9.66;100.00
74103;BME280;62853;46.166;3.640;2023-03-12T17:57:44;100665.47;;;9.70;100.00
74103;BME280;62853;46.166;3.640;2023-03-12T18:00:10;100661.06;;;9.71;100.00
74103;BME280;62853;46.166;3.640;2023-03-12T18:02:38;100655.78;;;9.71;100.00
74103;BME280;62853;46.166;3.640;2023-03-12T18:05:05;100657.66;;;9.68;100.00
74103;BME280;62853;46.166;3.640;2023-03-12T18:07:30;100655.28;;;9.64;100.00
74103;BME280;62853;46.166;3.640;2023-03-12T18:09:58;100667.41;;;9.66;100.00
74103;BME280;62853;46.166;3.640;2023-03-12T18:12:23;100659.53;;;9.66;100.00
74103;BME280;62853;46.166;3.640;2023-03-12T18:14:49;100661.28;;;9.66;100.00
74103;BME280;62853;46.166;3.640;2023-03-12T18:17:14;100651.81;;;9.63;100.00
74103;BME280;62853;46.166;3.640;2023-03-12T18:19:43;100654.34;;;9.65;100.00
74103;BME280;62853;46.166;3.640;2023-03-12T18:22:19;100656.97;;;9.65;100.00
74103;BME280;62853;46.166;3.640;2023-03-12T18:24:44;100659.44;;;9.68;100.00
74103;BME280;62853;46.166;3.640;2023-03-12T18:27:10;100637.53;;;9.67;100.00
74103;BME280;62853;46.166;3.640;2023-03-12T18:29:36;100647.22;;;9.67;100.00
74103;BME280;62853;46.166;3.640;2023-03-12T18:32:05;100659.09;;;9.74;100.00
74103;BME280;62853;46.166;3.640;2023-03-12T18:34:31;100642.19;;;9.62;100.00